createdAt,value
2022-09-16T00:02:16.430Z,11.40
2022-09-16T00:05:10.613Z,11.50
2022-09-16T00:08:07.249Z,11.50
2022-09-16T00:10:55.985Z,11.50
2022-09-16T00:13:35.513Z,11.60
2022-09-16T00:16:27.449Z,11.50
2022-09-16T00:19:03.403Z,11.50
2022-09-16T00:22:10.435Z,11.60
2022-09-16T00:24:45.321Z,11.60
2022-09-16T00:27:29.516Z,11.60
2022-09-16T00:30:04.226Z,11.60
2022-09-16T00:32:59.152Z,11.60
2022-09-16T00:35:44.034Z,11.70
2022-09-16T00:38:18.552Z,11.70
2022-09-16T00:40:58.708Z,11.60
2022-09-16T00:43:58.504Z,12.00
2022-09-16T00:46:48.695Z,11.80
2022-09-16T00:49:27.809Z,11.70
2022-09-16T00:52:04.866Z,11.90
2022-09-16T00:54:40.949Z,11.80
2022-09-16T00:57:17.215Z,11.70
2022-09-16T01:00:14.112Z,11.70
2022-09-16T01:02:52.853Z,11.90
2022-09-16T01:05:29.568Z,12.10
2022-09-16T01:08:49.764Z,12.20
2022-09-16T01:11:29.932Z,12.00
2022-09-16T01:14:19.599Z,12.00
2022-09-16T01:17:09.276Z,12.20
2022-09-16T01:20:01.810Z,12.20
2022-09-16T01:22:58.399Z,12.20
2022-09-16T01:25:41.888Z,12.30
2022-09-16T01:28:45.974Z,12.30
2022-09-16T01:31:27.139Z,12.30
2022-09-16T01:34:13.939Z,12.30
2022-09-16T01:36:53.049Z,12.20
2022-09-16T01:39:32.877Z,12.20
2022-09-16T01:42:30.930Z,12.30
2022-09-16T01:45:19.538Z,12.20
2022-09-16T01:48:00.110Z,12.10
2022-09-16T01:50:38.628Z,12.00
2022-09-16T01:53:36.023Z,12.00
2022-09-16T01:56:14.768Z,12.00
2022-09-16T01:59:10.089Z,12.00
2022-09-16T02:02:28.699Z,12.00
2022-09-16T02:05:08.410Z,12.00
2022-09-16T02:08:11.845Z,12.10
2022-09-16T02:10:49.280Z,12.10
2022-09-16T02:13:32.778Z,12.10
2022-09-16T02:16:19.454Z,12.10
2022-09-16T02:18:57.037Z,12.10
2022-09-16T02:21:44.881Z,12.20
2022-09-16T02:24:29.624Z,12.10
2022-09-16T02:27:08.576Z,12.00
2022-09-16T02:29:46.112Z,12.10
2022-09-16T02:32:21.786Z,12.10
2022-09-16T02:34:59.584Z,12.20
2022-09-16T02:37:45.473Z,12.20
2022-09-16T02:40:33.835Z,12.10
2022-09-16T02:43:08.748Z,12.20
2022-09-16T02:45:48.658Z,12.20
2022-09-16T02:49:06.089Z,12.20
2022-09-16T02:51:46.782Z,12.20
2022-09-16T02:54:26.933Z,12.20
2022-09-16T02:57:11.166Z,12.20
2022-09-16T02:59:53.102Z,12.30
2022-09-16T03:02:29.215Z,12.40
2022-09-16T03:05:05.833Z,12.20
2022-09-16T03:07:41.678Z,12.00
2022-09-16T03:10:25.851Z,12.00
2022-09-16T03:13:09.954Z,12.00
2022-09-16T03:15:57.898Z,12.30
2022-09-16T03:18:48.728Z,12.30
2022-09-16T03:21:33.147Z,12.20
2022-09-16T03:24:11.833Z,12.20
2022-09-16T03:26:55.203Z,12.20
2022-09-16T03:29:34.907Z,12.30
2022-09-16T03:32:15.488Z,12.30
2022-09-16T03:35:28.455Z,12.40
2022-09-16T03:38:12.994Z,12.40
2022-09-16T03:40:53.371Z,12.40
2022-09-16T03:43:36.593Z,12.50
2022-09-16T03:46:16.905Z,12.50
2022-09-16T03:48:51.649Z,12.50
2022-09-16T03:51:35.763Z,12.50
2022-09-16T03:54:10.788Z,12.50
2022-09-16T03:57:05.667Z,12.50
2022-09-16T03:59:42.268Z,12.50
2022-09-16T04:02:17.419Z,12.50
2022-09-16T04:05:41.342Z,12.50
2022-09-16T04:09:15.040Z,12.40
2022-09-16T04:12:16.700Z,12.50
2022-09-16T04:15:51.146Z,12.50
2022-09-16T04:18:39.427Z,12.50
2022-09-16T04:21:40.527Z,12.50
2022-09-16T04:24:46.682Z,12.50
2022-09-16T04:27:21.729Z,12.50
2022-09-16T04:30:05.525Z,12.60
2022-09-16T04:32:46.733Z,12.50
2022-09-16T04:35:23.057Z,12.60
2022-09-16T04:37:57.395Z,12.60
2022-09-16T04:40:34.930Z,12.70
2022-09-16T04:43:11.875Z,12.80
2022-09-16T04:46:11.399Z,12.90
2022-09-16T04:48:54.609Z,12.80
2022-09-16T04:52:11.930Z,12.70
2022-09-16T04:55:28.639Z,12.80
2022-09-16T04:58:37.558Z,12.80
2022-09-16T05:01:35.437Z,12.70
2022-09-16T05:04:23.147Z,12.70
2022-09-16T05:07:23.420Z,12.80
2022-09-16T05:09:59.819Z,12.80
2022-09-16T05:12:34.918Z,12.80
2022-09-16T05:15:14.003Z,12.70
2022-09-16T05:18:10.632Z,12.80
2022-09-16T05:21:00.617Z,12.80
2022-09-16T05:27:36.010Z,12.80
2022-09-16T05:30:28.800Z,12.90
2022-09-16T05:34:00.912Z,12.90
2022-09-16T05:36:45.556Z,12.80
2022-09-16T05:39:49.184Z,12.90
2022-09-16T05:49:28.752Z,12.80
2022-09-16T05:56:09.325Z,12.90
2022-09-16T05:59:06.128Z,12.90
2022-09-16T06:02:38.502Z,12.90
2022-09-16T06:05:27.665Z,12.90
2022-09-16T06:08:05.839Z,12.90
2022-09-16T06:10:46.481Z,13.00
2022-09-16T06:13:58.855Z,13.00
2022-09-16T06:16:35.188Z,13.10
2022-09-16T06:19:14.161Z,13.00
2022-09-16T06:22:13.431Z,13.10
2022-09-16T06:24:48.263Z,13.00
2022-09-16T06:27:23.488Z,13.10
2022-09-16T06:30:05.827Z,13.00
2022-09-16T06:33:33.098Z,13.00
2022-09-16T06:40:03.332Z,12.80
2022-09-16T06:42:59.488Z,12.90
2022-09-16T06:45:34.737Z,12.90
2022-09-16T06:48:47.418Z,12.80
2022-09-16T06:51:40.926Z,12.80
2022-09-16T06:54:16.471Z,12.70
2022-09-16T06:56:52.848Z,12.60
2022-09-16T06:59:29.228Z,12.60
2022-09-16T07:02:28.784Z,12.50
2022-09-16T07:09:05.215Z,12.30
2022-09-16T07:16:09.169Z,12.20
2022-09-16T07:19:41.185Z,12.10
2022-09-16T07:26:15.457Z,12.00
2022-09-16T07:28:51.356Z,11.90
2022-09-16T07:32:01.005Z,11.90
2022-09-16T07:35:33.168Z,11.70
2022-09-16T07:42:14.670Z,11.60
2022-09-16T07:48:46.341Z,11.70
2022-09-16T07:51:24.513Z,11.70
2022-09-16T07:54:37.226Z,11.90
2022-09-16T07:57:11.766Z,11.70
2022-09-16T07:59:46.425Z,11.70
2022-09-16T08:02:35.502Z,11.60
2022-09-16T08:05:24.684Z,11.60
2022-09-16T08:11:46.065Z,11.70
2022-09-16T08:18:13.046Z,11.70
2022-09-16T08:24:43.057Z,11.80
2022-09-16T08:34:58.748Z,11.90
2022-09-16T08:41:28.516Z,12.20
2022-09-16T08:48:15.723Z,12.30
2022-09-16T08:54:48.832Z,12.30
2022-09-16T09:01:21.967Z,12.50
2022-09-16T09:07:57.860Z,12.50
2022-09-16T09:10:38.962Z,12.60
2022-09-16T09:13:41.071Z,12.60
2022-09-16T09:16:38.065Z,12.60
2022-09-16T09:23:36.096Z,12.70
2022-09-16T09:26:21.233Z,12.70
2022-09-16T09:29:26.620Z,12.90
2022-09-16T09:39:57.417Z,13.20
2022-09-16T09:46:32.511Z,13.30
2022-09-16T09:49:13.165Z,13.20
2022-09-16T09:51:59.629Z,13.40
2022-09-16T09:54:37.225Z,13.50
2022-09-16T09:57:28.120Z,13.60
2022-09-16T10:08:00.745Z,13.90
2022-09-16T10:14:55.707Z,13.90
2022-09-16T10:21:19.166Z,13.90
2022-09-16T10:34:42.462Z,14.70
2022-09-16T10:37:54.389Z,14.90
2022-09-16T10:44:27.791Z,15.50
2022-09-16T10:50:58.228Z,15.90
2022-09-16T10:57:31.203Z,15.80
2022-09-16T11:04:24.200Z,15.10
2022-09-16T11:10:57.494Z,14.80
2022-09-16T11:13:44.552Z,14.80
2022-09-16T11:16:34.488Z,14.80
2022-09-16T11:19:15.341Z,14.90
2022-09-16T11:22:03.367Z,14.80
2022-09-16T11:24:59.064Z,14.50
2022-09-16T11:35:31.137Z,14.60
2022-09-16T11:42:07.504Z,14.90
2022-09-16T11:44:50.781Z,14.90
2022-09-16T11:47:43.840Z,15.00
2022-09-16T11:50:32.562Z,15.10
2022-09-16T11:53:49.418Z,15.10
2022-09-16T11:56:31.394Z,15.00
2022-09-16T12:03:02.353Z,15.20
2022-09-16T12:09:42.758Z,15.60
2022-09-16T12:12:33.668Z,15.90
2022-09-16T12:19:04.036Z,16.20
2022-09-16T12:25:55.686Z,16.30
2022-09-16T12:28:37.922Z,16.20
2022-09-16T12:31:20.539Z,16.20
2022-09-16T12:34:10.191Z,16.10
2022-09-16T12:40:39.902Z,16.10
2022-09-16T12:43:39.198Z,16.40
2022-09-16T12:46:35.294Z,16.50
2022-09-16T12:49:25.282Z,16.20
2022-09-16T12:52:25.684Z,16.10
2022-09-16T12:55:24.163Z,16.20
2022-09-16T12:58:15.078Z,16.10
2022-09-16T13:01:02.221Z,16.10
2022-09-16T13:03:40.982Z,16.00
2022-09-16T13:07:10.579Z,15.80
2022-09-16T13:09:47.945Z,15.50
2022-09-16T13:12:39.253Z,15.50
2022-09-16T13:19:38.500Z,15.60
2022-09-16T13:26:18.390Z,15.80
2022-09-16T13:29:26.790Z,16.00
2022-09-16T13:32:01.616Z,15.90
2022-09-16T13:34:38.648Z,15.90
2022-09-16T13:37:17.366Z,16.10
2022-09-16T13:39:53.282Z,16.00
2022-09-16T13:42:40.888Z,16.10
2022-09-16T13:45:36.624Z,16.10
2022-09-16T13:48:14.173Z,16.20
2022-09-16T13:50:53.952Z,16.50
2022-09-16T13:53:35.139Z,16.30
2022-09-16T13:56:33.671Z,16.00
2022-09-16T13:59:22.192Z,15.70
2022-09-16T14:02:03.123Z,15.40
2022-09-16T14:05:07.830Z,15.30
2022-09-16T14:07:53.953Z,15.30
2022-09-16T14:10:56.103Z,15.30
2022-09-16T14:13:40.405Z,15.40
2022-09-16T14:16:20.047Z,15.40
2022-09-16T14:19:19.807Z,15.40
2022-09-16T14:22:05.358Z,15.60
2022-09-16T14:24:56.593Z,15.40
2022-09-16T14:27:45.079Z,15.50
2022-09-16T14:30:23.771Z,15.70
2022-09-16T14:33:19.603Z,15.80
2022-09-16T14:35:56.899Z,16.00
2022-09-16T14:39:03.473Z,16.00
2022-09-16T14:42:17.707Z,16.00
2022-09-16T14:45:08.298Z,16.10
2022-09-16T14:47:52.061Z,16.30
2022-09-16T14:50:34.707Z,16.50
2022-09-16T14:53:35.386Z,16.60
2022-09-16T14:59:13.249Z,16.80
2022-09-16T15:08:33.198Z,16.60
2022-09-16T15:11:47.238Z,16.40
2022-09-16T15:14:26.184Z,16.10
2022-09-16T15:17:20.757Z,16.20
2022-09-16T15:20:00.699Z,16.20
2022-09-16T15:22:35.841Z,16.10
2022-09-16T15:25:34.572Z,16.30
2022-09-16T15:28:24.649Z,16.30
2022-09-16T15:31:02.339Z,16.20
2022-09-16T15:33:38.916Z,16.00
2022-09-16T15:36:49.975Z,16.10
2022-09-16T15:43:32.060Z,16.10
2022-09-16T15:54:20.206Z,15.80
2022-09-16T15:57:30.671Z,15.70
2022-09-16T16:00:29.606Z,15.60
2022-09-16T16:03:06.320Z,15.70
2022-09-16T16:13:56.515Z,15.70
2022-09-16T16:20:24.222Z,15.50
2022-09-16T16:23:30.348Z,15.50
2022-09-16T16:26:29.254Z,15.60
2022-09-16T16:33:35.284Z,15.40
2022-09-16T16:36:23.969Z,15.30
2022-09-16T16:39:29.500Z,15.30
2022-09-16T16:42:05.932Z,15.20
2022-09-16T16:44:40.686Z,15.20
2022-09-16T16:47:30.392Z,15.20
2022-09-16T16:50:08.355Z,15.20
2022-09-16T16:52:53.528Z,15.10
2022-09-16T16:55:29.614Z,15.00
2022-09-16T16:58:17.078Z,14.90
2022-09-16T17:01:56.978Z,14.80
2022-09-16T17:04:55.556Z,14.70
2022-09-16T17:07:45.109Z,14.60
2022-09-16T17:14:19.604Z,14.50
2022-09-16T17:20:48.820Z,14.40
2022-09-16T17:27:24.358Z,14.10
2022-09-16T17:31:15.793Z,14.00
2022-09-16T17:34:34.006Z,13.90
2022-09-16T17:37:56.814Z,13.90
2022-09-16T17:45:08.450Z,13.70
2022-09-16T17:52:34.393Z,13.60
2022-09-16T17:55:35.765Z,13.50
2022-09-16T18:21:00.921Z,13.30
2022-09-16T18:42:07.111Z,12.60
2022-09-16T18:48:46.775Z,12.70
2022-09-16T18:51:49.907Z,12.40
2022-09-16T19:26:28.155Z,11.40
2022-09-16T19:32:18.998Z,10.90
2022-09-16T19:38:14.030Z,11.10
2022-09-16T19:43:58.688Z,11.50
2022-09-16T19:46:41.289Z,11.30
2022-09-16T19:49:36.399Z,11.30
2022-09-16T19:53:05.738Z,11.50
2022-09-16T19:56:28.880Z,11.50
2022-09-16T20:02:35.700Z,11.30
2022-09-16T20:16:02.038Z,11.00
2022-09-16T20:24:44.656Z,10.80
2022-09-16T20:27:57.561Z,10.60
2022-09-16T20:34:02.814Z,10.70
2022-09-16T20:37:18.460Z,10.70
2022-09-16T20:39:54.859Z,10.70
2022-09-16T20:42:33.580Z,10.90
2022-09-16T20:45:46.386Z,10.70
2022-09-16T20:48:45.229Z,10.80
2022-09-16T20:51:44.179Z,11.20
2022-09-16T20:54:41.772Z,10.90
2022-09-16T20:57:18.898Z,10.80
2022-09-16T21:00:30.389Z,10.50
2022-09-16T21:03:35.509Z,10.60
2022-09-16T21:06:12.835Z,10.90
2022-09-16T21:12:23.332Z,11.10
2022-09-16T21:15:10.536Z,11.20
2022-09-16T21:17:46.497Z,11.30
2022-09-16T21:21:04.968Z,11.30
2022-09-16T21:23:42.595Z,11.20
2022-09-16T21:29:18.425Z,11.30
2022-09-16T21:32:06.966Z,11.30
2022-09-16T21:34:48.621Z,11.40
2022-09-16T21:37:33.379Z,11.30
2022-09-16T21:40:10.670Z,11.40
2022-09-16T21:46:23.791Z,11.30
2022-09-16T21:49:25.593Z,11.40
2022-09-16T21:52:07.039Z,11.40
2022-09-16T21:55:01.961Z,11.30
2022-09-16T21:58:37.606Z,11.30
2022-09-16T22:01:42.145Z,11.40
2022-09-16T22:04:35.011Z,11.40
2022-09-16T22:07:14.382Z,11.50
2022-09-16T22:10:18.735Z,11.40
2022-09-16T22:13:19.857Z,11.40
2022-09-16T22:15:56.845Z,11.50
2022-09-16T22:18:58.275Z,11.50
2022-09-16T22:22:01.041Z,11.50
2022-09-16T22:24:49.098Z,11.60
2022-09-16T22:27:54.313Z,11.60
2022-09-16T22:30:33.135Z,11.50
2022-09-16T22:33:13.680Z,11.60
2022-09-16T22:36:04.986Z,11.50
2022-09-16T22:39:11.784Z,11.50
2022-09-16T22:41:51.457Z,11.60
2022-09-16T22:44:32.897Z,11.60
2022-09-16T22:47:58.352Z,11.50
2022-09-16T22:50:37.679Z,11.60
2022-09-16T22:53:45.733Z,11.50
2022-09-16T22:57:16.726Z,11.40
2022-09-16T22:59:52.126Z,11.40
2022-09-16T23:02:27.605Z,11.40
2022-09-16T23:05:07.607Z,11.40
2022-09-16T23:07:54.394Z,11.40
2022-09-16T23:10:47.644Z,11.30
2022-09-16T23:13:53.346Z,11.30
2022-09-16T23:16:54.745Z,11.30
2022-09-16T23:19:46.817Z,11.30
2022-09-16T23:22:43.692Z,11.30
2022-09-16T23:28:37.198Z,11.20
2022-09-16T23:31:14.687Z,11.30
2022-09-16T23:34:46.179Z,11.30
2022-09-16T23:38:02.266Z,11.30
2022-09-16T23:40:41.692Z,11.20
2022-09-16T23:43:20.125Z,11.30
2022-09-16T23:45:54.662Z,11.20
2022-09-16T23:48:31.702Z,11.20
2022-09-16T23:51:17.293Z,11.30
2022-09-16T23:53:58.969Z,11.20
2022-09-16T23:57:38.851Z,11.10
